Time;durP1;ratioP1;P1;durP2;ratioP2;P2;SDS_P1;SDS_P2;PMS_P1;PMS_P2;Temp;Humidity;BMP_temperature;BMP_pressure;BME280_temperature;BME280_humidity;BME280_pressure;Samples;Min_cycle;Max_cycle;Signal;HPM_P1;HPM_P2
2021/04/16 00:00:08;;;;;;;2.67;2.30;;;6.50;1.00;;;;;;5055858;28;20475;-76
2021/04/16 00:02:35;;;;;;;2.00;1.50;;;6.50;1.00;;;;;;5054598;28;20475;-77
2021/04/16 00:05:03;;;;;;;3.17;1.90;;;6.50;1.00;;;;;;5058037;28;20501;-76
2021/04/16 00:07:32;;;;;;;6.37;1.97;;;6.60;1.00;;;;;;5051308;28;20474;-76
2021/04/16 00:09:59;;;;;;;2.47;2.25;;;6.60;1.00;;;;;;5051989;28;20461;-77
2021/04/16 00:12:27;;;;;;;2.33;2.10;;;6.50;1.00;;;;;;5056354;28;20203;-76
2021/04/16 00:14:54;;;;;;;1.80;1.70;;;6.50;1.00;;;;;;5049027;28;20518;-74
2021/04/16 00:17:21;;;;;;;3.30;1.50;;;6.70;1.00;;;;;;5057345;28;20983;-76
2021/04/16 00:19:49;;;;;;;2.10;1.83;;;6.50;1.00;;;;;;5053616;28;20479;-75
2021/04/16 00:22:16;;;;;;;1.80;1.70;;;6.50;1.00;;;;;;5047691;28;20764;-76
2021/04/16 00:24:44;;;;;;;2.30;1.90;;;6.50;1.00;;;;;;5044361;28;20635;-76
2021/04/16 00:27:12;;;;;;;3.75;1.77;;;6.50;1.00;;;;;;5054035;28;20217;-76
2021/04/16 00:29:39;;;;;;;3.17;1.80;;;6.50;1.00;;;;;;5050967;28;20197;-76
2021/04/16 00:32:07;;;;;;;2.80;1.80;;;6.40;1.00;;;;;;5060278;28;20220;-78
2021/04/16 00:34:34;;;;;;;2.47;2.28;;;6.40;1.00;;;;;;5057154;28;20225;-75
2021/04/16 00:37:01;;;;;;;1.63;1.50;;;6.40;1.00;;;;;;5049661;28;20675;-76
2021/04/16 00:39:28;;;;;;;3.42;1.70;;;6.40;1.00;;;;;;5048591;28;20239;-74
2021/04/16 00:41:56;;;;;;;2.83;2.63;;;6.40;1.00;;;;;;5047422;28;20210;-76
2021/04/16 00:44:23;;;;;;;1.63;1.53;;;6.40;1.00;;;;;;5043083;28;20245;-75
2021/04/16 00:46:57;;;;;;;2.33;1.70;;;6.40;1.00;;;;;;5053980;28;20472;-76
2021/04/16 00:49:29;;;;;;;1.65;1.50;;;6.40;1.00;;;;;;5044722;28;20569;-77
2021/04/16 00:52:00;;;;;;;3.00;1.70;;;6.40;1.00;;;;;;5056649;28;20205;-76
2021/04/16 00:54:30;;;;;;;3.03;2.27;;;6.60;1.00;;;;;;5049307;28;20305;-78
2021/04/16 00:56:58;;;;;;;2.13;1.80;;;6.40;1.00;;;;;;5054883;28;20453;-76
2021/04/16 00:59:28;;;;;;;2.00;1.90;;;6.40;1.00;;;;;;5053661;28;20447;-77
2021/04/16 01:01:56;;;;;;;2.30;2.10;;;6.40;1.00;;;;;;5056237;28;20213;-75
2021/04/16 01:04:24;;;;;;;2.63;1.70;;;6.60;1.00;;;;;;5049831;28;20586;-77
2021/04/16 01:06:52;;;;;;;2.50;2.30;;;6.30;1.00;;;;;;5055631;28;20214;-77
2021/04/16 01:09:20;;;;;;;2.60;2.38;;;6.30;1.00;;;;;;5050813;28;20497;-78
2021/04/16 01:11:47;;;;;;;2.03;1.77;;;6.30;1.00;;;;;;5048716;28;20964;-78
2021/04/16 01:14:16;;;;;;;2.00;1.90;;;6.30;1.00;;;;;;5044035;28;20549;-78
2021/04/16 01:16:45;;;;;;;2.17;1.73;;;6.20;1.00;;;;;;5044652;28;20208;-76
2021/04/16 01:19:21;;;;;;;1.88;1.63;;;6.20;1.00;;;;;;5043391;28;20839;-77
2021/04/16 01:21:57;;;;;;;2.27;2.07;;;6.30;1.00;;;;;;5047657;28;20219;-74
2021/04/16 01:24:27;;;;;;;2.03;1.80;;;6.20;1.00;;;;;;5051853;28;21085;-76
2021/04/16 01:26:54;;;;;;;1.63;1.52;;;6.20;1.00;;;;;;5049282;28;20461;-76
2021/04/16 01:29:22;;;;;;;2.50;1.73;;;6.20;1.00;;;;;;5050476;28;20712;-77
2021/04/16 01:31:51;;;;;;;2.13;1.70;;;6.20;1.00;;;;;;5042517;28;20291;-76
2021/04/16 01:34:21;;;;;;;1.88;1.50;;;6.20;1.00;;;;;;5049644;28;20282;-75
2021/04/16 01:36:52;;;;;;;2.80;2.17;;;6.10;1.00;;;;;;5055097;28;20235;-76
2021/04/16 01:39:19;;;;;;;2.33;1.80;;;6.20;1.00;;;;;;5051666;28;20303;-77
2021/04/16 01:41:48;;;;;;;1.75;1.60;;;6.10;1.00;;;;;;5052834;28;20294;-77
2021/04/16 01:44:17;;;;;;;1.90;1.70;;;6.10;1.00;;;;;;5039950;28;20225;-77
2021/04/16 01:46:51;;;;;;;2.20;2.00;;;6.40;1.00;;;;;;5053068;28;20458;-75
2021/04/16 01:49:19;;;;;;;1.70;1.60;;;6.10;1.00;;;;;;5055770;28;20231;-76
2021/04/16 01:51:48;;;;;;;1.85;1.75;;;6.10;1.00;;;;;;5059738;28;21194;-77
2021/04/16 01:54:18;;;;;;;2.00;1.80;;;6.10;1.00;;;;;;5053588;28;20236;-77
2021/04/16 01:56:49;;;;;;;1.90;1.75;;;6.10;1.00;;;;;;5047493;28;20234;-76
2021/04/16 01:59:19;;;;;;;2.60;2.35;;;6.10;1.00;;;;;;5049896;28;20231;-76
2021/04/16 02:01:47;;;;;;;1.60;1.40;;;6.10;1.00;;;;;;5045820;28;20313;-77
2021/04/16 02:04:16;;;;;;;1.40;1.30;;;6.10;1.00;;;;;;5056125;28;20226;-76
2021/04/16 02:06:44;;;;;;;2.78;2.08;;;6.10;1.00;;;;;;5051415;28;20206;-77
2021/04/16 02:09:14;;;;;;;1.60;1.50;;;6.10;1.00;;;;;;5055763;28;20296;-76
2021/04/16 02:11:43;;;;;;;1.70;1.60;;;6.00;1.00;;;;;;5052998;28;20216;-77
2021/04/16 02:14:13;;;;;;;4.30;1.87;;;6.10;1.00;;;;;;5053858;28;20243;-77
2021/04/16 02:16:40;;;;;;;1.75;1.63;;;6.10;1.00;;;;;;5057762;28;20555;-77
2021/04/16 02:19:08;;;;;;;2.28;2.08;;;6.00;1.00;;;;;;5047419;28;20213;-74
2021/04/16 02:21:35;;;;;;;2.47;1.77;;;6.00;1.00;;;;;;5052576;28;20222;-78
2021/04/16 02:24:05;;;;;;;3.37;2.33;;;6.00;1.00;;;;;;5054185;28;20956;-78
2021/04/16 02:26:32;;;;;;;2.05;1.73;;;5.90;1.00;;;;;;5056389;28;20490;-78
2021/04/16 02:28:59;;;;;;;2.97;1.70;;;6.00;1.00;;;;;;5049700;28;20206;-77
2021/04/16 02:31:27;;;;;;;2.35;2.15;;;5.90;1.00;;;;;;5053418;28;20286;-78
2021/04/16 02:33:54;;;;;;;3.00;1.75;;;5.90;1.00;;;;;;5055787;28;20673;-78
2021/04/16 02:36:24;;;;;;;1.92;1.83;;;5.90;1.00;;;;;;5049987;28;20765;-78
2021/04/16 02:38:52;;;;;;;2.20;1.88;;;5.90;1.00;;;;;;5051485;28;20862;-77
2021/04/16 02:41:19;;;;;;;3.63;2.22;;;5.90;1.00;;;;;;5051353;28;20270;-77
2021/04/16 02:43:47;;;;;;;1.73;1.45;;;6.00;1.00;;;;;;5051164;28;20222;-76
2021/04/16 02:46:15;;;;;;;2.05;1.85;;;5.80;1.00;;;;;;5049561;28;20220;-76
2021/04/16 02:48:43;;;;;;;2.95;1.60;;;5.80;1.00;;;;;;5058086;28;20215;-77
2021/04/16 02:51:10;;;;;;;3.70;1.95;;;5.70;1.00;;;;;;5049504;28;20213;-77
2021/04/16 02:53:38;;;;;;;2.17;2.00;;;5.60;1.00;;;;;;5063326;28;20229;-76
2021/04/16 02:56:05;;;;;;;2.03;1.75;;;5.60;1.00;;;;;;5055040;28;20248;-76
2021/04/16 02:58:32;;;;;;;1.65;1.52;;;5.60;1.00;;;;;;5062126;28;20214;-75
2021/04/16 03:01:00;;;;;;;3.72;1.92;;;5.60;1.00;;;;;;5042958;28;20232;-78
2021/04/16 03:03:28;;;;;;;3.08;2.17;;;5.60;1.00;;;;;;5059532;28;20232;-77
2021/04/16 03:05:57;;;;;;;2.22;1.90;;;5.60;1.00;;;;;;5047024;28;20211;-75
2021/04/16 03:08:25;;;;;;;1.80;1.70;;;5.50;1.00;;;;;;5056607;28;20219;-76
2021/04/16 03:10:52;;;;;;;2.05;1.85;;;5.50;1.00;;;;;;5072818;28;20305;-77
2021/04/16 03:13:19;;;;;;;2.28;1.58;;;5.50;1.00;;;;;;5044156;28;20237;-77
2021/04/16 03:15:46;;;;;;;2.25;2.05;;;5.50;1.00;;;;;;5056068;28;20209;-78
2021/04/16 03:18:14;;;;;;;2.10;1.80;;;5.50;1.00;;;;;;5073504;28;20752;-75
2021/04/16 03:20:42;;;;;;;4.20;1.92;;;5.50;1.00;;;;;;5053595;28;20579;-77
2021/04/16 03:23:11;;;;;;;3.08;2.00;;;5.50;1.00;;;;;;5059737;28;20243;-76
2021/04/16 03:25:38;;;;;;;2.25;2.03;;;5.50;1.00;;;;;;5047245;28;20217;-76
2021/04/16 03:28:06;;;;;;;3.65;1.70;;;5.50;1.00;;;;;;5049492;28;20202;-75
2021/04/16 03:30:34;;;;;;;2.10;1.90;;;5.20;1.00;;;;;;5056013;28;20204;-76
2021/04/16 03:33:01;;;;;;;2.58;2.10;;;5.50;1.00;;;;;;5056237;28;20237;-76
2021/04/16 03:35:29;;;;;;;2.22;2.03;;;5.50;1.00;;;;;;5047981;28;20305;-76
2021/04/16 03:37:56;;;;;;;3.55;2.08;;;5.70;1.00;;;;;;5053658;28;20215;-77
2021/04/16 03:40:28;;;;;;;2.80;2.10;;;5.40;1.00;;;;;;5052955;28;20251;-77
2021/04/16 03:42:56;;;;;;;3.28;1.90;;;5.30;1.00;;;;;;5050624;28;20277;-77
2021/04/16 03:45:24;;;;;;;2.80;1.73;;;5.30;1.00;;;;;;5061186;28;20212;-77
2021/04/16 03:47:52;;;;;;;5.22;2.33;;;5.30;1.00;;;;;;5059805;28;20216;-76
2021/04/16 03:50:23;;;;;;;6.55;2.53;;;5.30;1.00;;;;;;5049580;28;20217;-76
2021/04/16 03:52:51;;;;;;;2.75;2.55;;;5.30;1.00;;;;;;5051821;28;20571;-76
2021/04/16 03:55:23;;;;;;;2.17;1.95;;;5.30;1.00;;;;;;5061424;28;20216;-76
2021/04/16 03:57:52;;;;;;;3.28;2.03;;;5.30;1.00;;;;;;5044454;28;20848;-77
2021/04/16 04:00:23;;;;;;;2.78;2.20;;;5.30;1.00;;;;;;5051598;28;20521;-75
2021/04/16 04:02:50;;;;;;;3.25;2.33;;;5.30;1.00;;;;;;5055403;28;20212;-76
2021/04/16 04:05:18;;;;;;;3.42;2.55;;;5.30;1.00;;;;;;5045144;28;20690;-77
2021/04/16 04:07:46;;;;;;;3.65;3.08;;;5.30;1.00;;;;;;5054088;28;20766;-74
2021/04/16 04:10:16;;;;;;;4.60;3.08;;;5.40;1.00;;;;;;5054495;28;20243;-74
2021/04/16 04:12:44;;;;;;;4.28;3.38;;;5.30;1.00;;;;;;5058414;28;20702;-76
2021/04/16 04:15:14;;;;;;;3.60;2.70;;;5.30;1.00;;;;;;5050889;28;20210;-76
2021/04/16 04:17:41;;;;;;;3.90;3.08;;;5.30;1.00;;;;;;5058853;28;20216;-76
2021/04/16 04:20:12;;;;;;;2.70;2.30;;;5.20;1.00;;;;;;5054853;28;20292;-77
2021/04/16 04:22:39;;;;;;;2.97;2.55;;;5.20;1.00;;;;;;5055753;28;20734;-78
2021/04/16 04:25:07;;;;;;;1.80;1.70;;;5.20;1.00;;;;;;5052116;28;20353;-78
2021/04/16 04:27:34;;;;;;;3.72;2.60;;;5.10;1.00;;;;;;5053315;28;21054;-77
2021/04/16 04:30:02;;;;;;;6.35;2.95;;;5.10;1.00;;;;;;5060395;28;20384;-76
2021/04/16 04:32:30;;;;;;;1.95;1.85;;;5.10;1.00;;;;;;5058100;28;20213;-76
2021/04/16 04:34:57;;;;;;;2.55;2.33;;;5.10;1.00;;;;;;5043492;28;20208;-76
2021/04/16 04:37:24;;;;;;;3.58;2.08;;;5.00;1.00;;;;;;5043830;28;20216;-77
2021/04/16 04:39:52;;;;;;;2.40;2.00;;;5.00;1.00;;;;;;5053837;28;20214;-77
2021/04/16 04:42:19;;;;;;;2.45;1.92;;;5.00;1.00;;;;;;5044764;28;20208;-77
2021/04/16 04:44:46;;;;;;;3.10;2.50;;;5.00;1.00;;;;;;5048352;28;20235;-77
2021/04/16 04:47:13;;;;;;;3.10;2.42;;;5.00;1.00;;;;;;5049693;28;20474;-77
2021/04/16 04:49:42;;;;;;;3.30;2.17;;;5.00;1.00;;;;;;5046102;28;20215;-78
2021/04/16 04:52:15;;;;;;;4.80;2.67;;;5.10;1.00;;;;;;5050171;28;20199;-76
2021/04/16 04:54:47;;;;;;;3.10;2.80;;;5.10;1.00;;;;;;5052029;28;20845;-77
2021/04/16 04:57:15;;;;;;;2.45;2.25;;;5.30;1.00;;;;;;5045087;28;20265;-76
2021/04/16 04:59:44;;;;;;;3.40;2.78;;;5.00;1.00;;;;;;5057096;28;20213;-77
2021/04/16 05:02:12;;;;;;;2.90;2.70;;;5.10;1.00;;;;;;5053806;28;20232;-77
2021/04/16 05:04:39;;;;;;;2.50;2.30;;;5.10;1.00;;;;;;5053249;28;20768;-79
2021/04/16 05:07:07;;;;;;;3.35;2.95;;;5.10;1.00;;;;;;5043884;28;20205;-78
2021/04/16 05:09:34;;;;;;;4.60;3.40;;;5.00;1.00;;;;;;5042270;28;20264;-77
2021/04/16 05:12:01;;;;;;;3.70;3.40;;;5.00;1.00;;;;;;5056409;28;20288;-77
2021/04/16 05:14:29;;;;;;;6.25;2.88;;;5.00;1.00;;;;;;5046382;28;20233;-76
2021/04/16 05:16:56;;;;;;;3.97;2.90;;;5.00;1.00;;;;;;5045443;28;20260;-78
2021/04/16 05:19:24;;;;;;;3.83;3.53;;;5.00;1.00;;;;;;5043956;28;20220;-76
2021/04/16 05:21:54;;;;;;;4.90;4.07;;;5.00;1.00;;;;;;5045303;28;20242;-79
2021/04/16 05:24:23;;;;;;;6.20;3.70;;;5.00;1.00;;;;;;5045605;28;20238;-78
2021/04/16 05:26:51;;;;;;;5.07;3.05;;;5.00;1.00;;;;;;5042509;28;20561;-78
2021/04/16 05:29:18;;;;;;;3.90;3.35;;;5.00;1.00;;;;;;5058589;28;20213;-79
2021/04/16 05:31:45;;;;;;;4.60;3.00;;;5.00;1.00;;;;;;5044596;28;20477;-79
2021/04/16 05:34:12;;;;;;;4.88;3.70;;;5.00;1.00;;;;;;5047403;28;20237;-79
2021/04/16 05:36:39;;;;;;;7.45;4.07;;;5.00;1.00;;;;;;5048939;28;20764;-80
2021/04/16 05:39:06;;;;;;;5.13;3.30;;;5.10;1.00;;;;;;5041218;28;20257;-79
2021/04/16 05:41:34;;;;;;;4.50;3.30;;;5.10;1.00;;;;;;5042126;28;20725;-79
2021/04/16 05:44:01;;;;;;;4.30;3.20;;;5.20;1.00;;;;;;5041898;28;20241;-80
2021/04/16 05:46:28;;;;;;;3.80;3.45;;;5.20;1.00;;;;;;5043297;28;20476;-77
2021/04/16 05:48:56;;;;;;;3.72;3.35;;;5.20;1.00;;;;;;5042078;28;20677;-77
2021/04/16 05:51:23;;;;;;;4.32;4.03;;;5.20;1.00;;;;;;5049415;28;20210;-78
2021/04/16 05:53:50;;;;;;;5.13;4.28;;;5.20;1.00;;;;;;5050372;28;20233;-78
2021/04/16 05:56:17;;;;;;;5.05;2.83;;;5.30;1.00;;;;;;5051599;28;20262;-79
2021/04/16 05:58:45;;;;;;;6.47;3.22;;;5.30;1.00;;;;;;5044138;28;20671;-80
2021/04/16 06:01:13;;;;;;;3.40;2.90;;;5.20;1.00;;;;;;5055529;28;20228;-80
2021/04/16 06:03:43;;;;;;;3.80;3.50;;;5.30;1.00;;;;;;5048270;28;20233;-79
2021/04/16 06:06:10;;;;;;;3.95;2.60;;;5.30;1.00;;;;;;5045625;28;20307;-80
2021/04/16 06:08:38;;;;;;;2.40;2.30;;;5.30;1.00;;;;;;5044580;28;20222;-79
2021/04/16 06:11:05;;;;;;;3.60;3.40;;;5.30;1.00;;;;;;5046332;28;20202;-77
2021/04/16 06:13:33;;;;;;;3.55;2.60;;;5.40;1.00;;;;;;5047860;28;20509;-81
2021/04/16 06:16:06;;;;;;;2.72;2.53;;;5.50;1.00;;;;;;5054986;28;20767;-80
2021/04/16 06:18:34;;;;;;;4.43;3.00;;;5.50;1.00;;;;;;5048448;28;20238;-79
2021/04/16 06:21:02;;;;;;;2.70;2.50;;;5.60;1.00;;;;;;5043495;28;20223;-80
2021/04/16 06:23:29;;;;;;;3.85;2.97;;;5.70;1.00;;;;;;5046550;28;20752;-79
2021/04/16 06:25:57;;;;;;;4.35;2.65;;;6.10;1.00;;;;;;5041877;28;20207;-79
2021/04/16 06:28:24;;;;;;;3.85;2.38;;;6.00;1.00;;;;;;5049583;28;20205;-79
2021/04/16 06:30:54;;;;;;;3.00;2.80;;;6.20;1.00;;;;;;5053256;28;20296;-78
2021/04/16 06:33:25;;;;;;;2.63;2.30;;;6.30;1.00;;;;;;5046169;28;20291;-79
2021/04/16 06:35:57;;;;;;;2.93;2.67;;;6.40;1.00;;;;;;5041501;28;20741;-80
2021/04/16 06:38:26;;;;;;;3.15;2.58;;;6.40;1.00;;;;;;5043233;28;20462;-78
2021/04/16 06:40:56;;;;;;;3.67;2.47;;;6.40;1.00;;;;;;5050326;28;20224;-79
2021/04/16 06:43:25;;;;;;;3.42;3.03;;;6.30;1.00;;;;;;5048725;28;20235;-77
2021/04/16 06:45:57;;;;;;;5.10;2.70;;;6.30;1.00;;;;;;5051657;28;20209;-80
2021/04/16 06:48:25;;;;;;;3.90;3.60;;;6.30;1.00;;;;;;5051039;28;20684;-79
2021/04/16 06:50:57;;;;;;;2.92;2.72;;;6.40;1.50;;;;;;5048141;28;20469;-79
2021/04/16 06:53:47;;;;;;;3.10;2.80;;;6.40;1.10;;;;;;5052139;28;20225;-80
2021/04/16 06:56:18;;;;;;;5.23;2.80;;;6.70;2.60;;;;;;5051558;28;20238;-78
2021/04/16 06:58:51;;;;;;;3.07;2.77;;;6.50;3.10;;;;;;5051691;28;20842;-80
2021/04/16 07:01:28;;;;;;;3.10;2.90;;;6.50;3.20;;;;;;5049583;28;20478;-81
2021/04/16 07:04:20;;;;;;;2.80;2.53;;;6.60;4.30;;;;;;5042219;28;20481;-81
2021/04/16 07:06:50;;;;;;;3.57;2.53;;;6.60;4.80;;;;;;5032415;28;20466;-79
2021/04/16 07:09:21;;;;;;;2.53;2.33;;;6.80;4.60;;;;;;5027656;28;20513;-81
2021/04/16 07:11:53;;;;;;;4.40;2.90;;;6.70;4.70;;;;;;5030425;28;20972;-79
2021/04/16 07:14:26;;;;;;;2.63;2.43;;;6.80;5.40;;;;;;5053216;28;20828;-79
2021/04/16 07:16:53;;;;;;;2.70;2.50;;;6.90;6.60;;;;;;5056053;28;20855;-79
2021/04/16 07:19:25;;;;;;;3.17;2.93;;;7.10;6.90;;;;;;5041695;28;20532;-82
2021/04/16 07:21:57;;;;;;;3.80;2.80;;;7.10;5.50;;;;;;5050517;28;20578;-78
2021/04/16 07:24:25;;;;;;;4.07;2.83;;;7.20;6.30;;;;;;5054109;28;20518;-80
2021/04/16 07:26:56;;;;;;;4.90;3.27;;;7.60;6.80;;;;;;5058494;28;20463;-81
2021/04/16 07:29:41;;;;;;;3.57;2.90;;;7.30;5.40;;;;;;5047408;28;20572;-79
2021/04/16 07:32:39;;;;;;;2.80;2.50;;;7.40;5.70;;;;;;5049647;28;20544;-79
2021/04/16 07:35:27;;;;;;;3.07;2.83;;;7.60;8.20;;;;;;5051033;28;20465;-79
2021/04/16 07:38:06;;;;;;;3.33;3.03;;;7.80;11.50;;;;;;5052266;28;20684;-77
2021/04/16 07:40:38;;;;;;;2.77;2.57;;;8.10;9.50;;;;;;5053020;28;20463;-78
2021/04/16 07:43:06;;;;;;;2.83;2.43;;;8.30;10.00;;;;;;5060375;28;20512;-79
2021/04/16 07:45:44;;;;;;;12.60;6.40;;;8.50;9.50;;;;;;5053217;28;20468;-78
2021/04/16 07:48:32;;;;;;;4.90;3.63;;;8.70;9.60;;;;;;5046552;28;20734;-80
2021/04/16 07:51:04;;;;;;;3.23;2.90;;;8.70;7.50;;;;;;5051243;28;20468;-79
2021/04/16 07:53:39;;;;;;;3.43;2.80;;;8.60;3.70;;;;;;5057590;28;20901;-77
2021/04/16 07:56:19;;;;;;;3.50;3.20;;;8.50;2.30;;;;;;5047197;28;20464;-75
2021/04/16 07:58:49;;;;;;;2.70;2.60;;;8.30;2.90;;;;;;5049109;28;20875;-77
2021/04/16 08:01:27;;;;;;;4.37;3.30;;;8.50;4.20;;;;;;5052112;28;20467;-78
2021/04/16 08:03:59;;;;;;;4.40;2.93;;;8.40;3.90;;;;;;5054896;28;21109;-78
2021/04/16 08:06:39;;;;;;;4.00;3.33;;;8.50;5.20;;;;;;5051901;28;20546;-77
2021/04/16 08:09:13;;;;;;;3.87;3.47;;;8.50;1.00;;;;;;5051405;28;20513;-78
2021/04/16 08:11:41;;;;;;;5.13;3.63;;;8.40;1.00;;;;;;5063246;28;20553;-76
2021/04/16 08:14:21;;;;;;;3.50;3.20;;;8.40;1.20;;;;;;5043546;28;20496;-78
2021/04/16 08:16:56;;;;;;;3.50;3.23;;;8.30;2.40;;;;;;5045566;28;20505;-77
2021/04/16 08:19:28;;;;;;;5.03;3.37;;;8.30;1.60;;;;;;5043563;28;20464;-79
2021/04/16 08:22:00;;;;;;;2.80;2.60;;;8.30;4.50;;;;;;5044971;28;20487;-76
2021/04/16 08:24:34;;;;;;;3.10;2.90;;;8.30;1.30;;;;;;5049158;28;20474;-78
2021/04/16 08:27:15;;;;;;;3.00;2.80;;;8.20;1.00;;;;;;5053274;28;21044;-76
2021/04/16 08:29:47;;;;;;;3.17;2.97;;;8.20;1.00;;;;;;5048771;28;20506;-77
2021/04/16 08:32:27;;;;;;;3.40;3.10;;;8.20;1.00;;;;;;5049779;28;21609;-77
2021/04/16 08:35:00;;;;;;;3.40;3.10;;;8.30;1.00;;;;;;5050682;28;20480;-77
2021/04/16 08:37:33;;;;;;;3.93;2.70;;;8.30;1.00;;;;;;5045952;28;20852;-76
2021/04/16 08:40:01;;;;;;;2.83;2.63;;;8.20;1.00;;;;;;5048486;28;20474;-78
2021/04/16 08:42:32;;;;;;;3.47;3.17;;;8.20;1.00;;;;;;5048597;28;21190;-81
2021/04/16 08:45:03;;;;;;;3.17;2.87;;;8.30;1.00;;;;;;5052269;28;20475;-79
2021/04/16 08:47:34;;;;;;;2.87;2.67;;;8.30;1.00;;;;;;5054874;28;20487;-82
2021/04/16 08:50:02;;;;;;;3.03;2.77;;;8.00;1.00;;;;;;5050413;28;20461;-79
2021/04/16 08:52:34;;;;;;;3.23;2.93;;;8.30;1.60;;;;;;5048013;28;20477;-82
2021/04/16 08:55:14;;;;;;;2.87;2.67;;;8.30;1.40;;;;;;5052995;28;20455;-82
2021/04/16 08:57:51;;;;;;;2.97;2.77;;;8.20;1.00;;;;;;5047419;28;20460;-82
2021/04/16 09:00:23;;;;;;;2.80;2.70;;;8.20;1.00;;;;;;5063210;28;20464;-79
2021/04/16 09:02:53;;;;;;;3.20;2.90;;;8.30;1.00;;;;;;5040610;28;20768;-81
2021/04/16 09:05:24;;;;;;;2.57;2.37;;;8.20;1.00;;;;;;5053367;28;20985;-80
2021/04/16 09:08:36;;;;;;;3.27;3.07;;;8.20;1.00;;;;;;5046123;28;20449;-78
2021/04/16 09:11:04;;;;;;;2.97;2.77;;;8.20;1.00;;;;;;5054067;28;20476;-81
2021/04/16 09:13:56;;;;;;;3.30;2.70;;;8.30;1.20;;;;;;5051843;28;20479;-81
2021/04/16 09:16:55;;;;;;;3.80;2.30;;;8.30;1.30;;;;;;5047903;28;20979;-80
2021/04/16 09:19:57;;;;;;;2.70;2.50;;;8.30;1.00;;;;;;5049527;28;20454;-77
2021/04/16 09:22:41;;;;;;;26.30;11.27;;;8.30;1.00;;;;;;5049574;28;20861;-78
2021/04/16 09:25:46;;;;;;;5.33;3.20;;;8.40;1.00;;;;;;5051889;28;20987;-78
2021/04/16 09:28:36;;;;;;;3.77;2.37;;;8.50;1.00;;;;;;5051341;28;20460;-80
2021/04/16 09:31:24;;;;;;;2.40;2.20;;;8.50;1.00;;;;;;5056236;28;20460;-80
2021/04/16 09:34:07;;;;;;;3.43;2.77;;;8.70;1.00;;;;;;5045645;28;20488;-81
2021/04/16 09:36:45;;;;;;;4.43;2.77;;;8.90;3.20;;;;;;5050799;28;20473;-82
2021/04/16 09:39:16;;;;;;;2.57;2.37;;;9.00;5.40;;;;;;5058531;28;20465;-82
2021/04/16 09:41:45;;;;;;;2.20;2.00;;;9.20;3.50;;;;;;5050258;28;20481;-78
2021/04/16 09:44:56;;;;;;;2.07;1.97;;;9.30;12.40;;;;;;5049512;28;20493;-82
2021/04/16 09:47:50;;;;;;;2.13;2.00;;;9.30;1.00;;;;;;5051991;28;20482;-81
2021/04/16 09:50:34;;;;;;;1.83;1.70;;;9.30;1.00;;;;;;5057302;28;20542;-80
2021/04/16 09:53:25;;;;;;;2.67;2.00;;;9.40;1.00;;;;;;5053840;28;20482;-82
2021/04/16 09:56:12;;;;;;;2.43;2.23;;;9.80;1.00;;;;;;5044395;28;20468;-81
2021/04/16 09:59:24;;;;;;;2.90;2.70;;;9.40;1.00;;;;;;5045484;28;20637;-82
2021/04/16 10:02:32;;;;;;;2.10;1.97;;;9.40;1.00;;;;;;5045590;28;21019;-85
2021/04/16 10:05:06;;;;;;;2.20;2.00;;;9.50;1.00;;;;;;5018233;28;20511;-81
2021/04/16 10:07:38;;;;;;;2.57;2.37;;;9.90;1.00;;;;;;5049581;28;20471;-81
2021/04/16 10:10:14;;;;;;;2.87;2.67;;;9.70;1.00;;;;;;5045831;28;20990;-82
2021/04/16 10:12:41;;;;;;;3.07;2.87;;;9.60;1.00;;;;;;5047250;28;20456;-82
2021/04/16 10:15:17;;;;;;;2.30;2.20;;;9.60;1.00;;;;;;5046648;28;20556;-79
2021/04/16 10:18:05;;;;;;;2.70;2.10;;;9.70;1.00;;;;;;5051624;28;20468;-80
2021/04/16 10:20:39;;;;;;;2.23;1.90;;;9.70;1.00;;;;;;5052835;28;20731;-80
2021/04/16 10:23:29;;;;;;;2.00;1.73;;;9.70;1.00;;;;;;5043701;28;20494;-79
2021/04/16 12:40:21;;;;;;;3.30;2.97;;;9.30;1.00;;;;;;5049657;28;20470;-78
2021/04/16 12:42:49;;;;;;;2.60;2.40;;;9.30;1.00;;;;;;5051196;28;20737;-79
2021/04/16 12:45:18;;;;;;;3.40;2.77;;;9.40;1.00;;;;;;5051371;28;20470;-78
2021/04/16 12:47:46;;;;;;;3.20;2.50;;;9.30;1.00;;;;;;5050392;28;20467;-74
2021/04/16 12:50:17;;;;;;;2.93;2.27;;;9.30;1.00;;;;;;5039363;28;20479;-78
2021/04/16 12:52:44;;;;;;;2.87;1.83;;;9.10;1.00;;;;;;5048475;28;20457;-79
2021/04/16 12:55:12;;;;;;;2.37;2.17;;;9.10;1.00;;;;;;5054341;28;20498;-79
2021/04/16 12:57:43;;;;;;;2.40;2.30;;;9.10;1.00;;;;;;5042220;28;20472;-80
2021/04/16 13:00:13;;;;;;;2.70;2.50;;;9.20;1.00;;;;;;5041725;28;20738;-78
2021/04/16 13:02:41;;;;;;;2.47;2.17;;;8.90;1.00;;;;;;5045509;28;20481;-78
2021/04/16 13:05:13;;;;;;;2.90;2.63;;;9.20;1.00;;;;;;5041141;28;20469;-77
2021/04/16 13:07:41;;;;;;;2.50;2.30;;;9.10;1.00;;;;;;5051293;28;20487;-78
2021/04/16 13:10:09;;;;;;;2.20;1.90;;;9.00;1.00;;;;;;5039664;28;20455;-76
2021/04/16 13:12:36;;;;;;;2.60;2.40;;;9.00;1.00;;;;;;5043482;28;20467;-78
2021/04/16 13:15:05;;;;;;;2.83;2.60;;;8.90;1.00;;;;;;5041784;28;20459;-78
2021/04/16 13:17:32;;;;;;;2.90;2.10;;;9.20;1.00;;;;;;5040200;28;20458;-76
2021/04/16 13:20:00;;;;;;;2.60;2.40;;;9.30;1.00;;;;;;5039674;28;20471;-77
2021/04/16 13:22:28;;;;;;;2.33;2.13;;;9.40;1.00;;;;;;5042241;28;20490;-77
2021/04/16 13:24:56;;;;;;;2.30;2.10;;;9.30;1.00;;;;;;5057899;28;20498;-78
2021/04/16 13:27:26;;;;;;;3.03;2.03;;;9.60;1.00;;;;;;5053530;28;20471;-76
2021/04/16 13:29:54;;;;;;;2.17;2.03;;;9.40;1.00;;;;;;5035169;28;21082;-78
2021/04/16 13:32:24;;;;;;;2.70;2.00;;;9.40;1.00;;;;;;5039678;28;20464;-77
2021/04/16 13:34:55;;;;;;;4.30;2.30;;;9.50;1.00;;;;;;5041060;28;20579;-77
2021/04/16 13:37:29;;;;;;;2.00;1.90;;;9.40;1.00;;;;;;5047275;28;20572;-77
2021/04/16 13:39:58;;;;;;;5.00;2.20;;;9.40;1.00;;;;;;5047638;28;20461;-77
2021/04/16 13:42:25;;;;;;;3.83;2.80;;;9.50;1.00;;;;;;5054282;28;20492;-77
2021/04/16 13:44:53;;;;;;;3.70;2.30;;;9.50;1.00;;;;;;5053408;28;20505;-77
2021/04/16 13:47:24;;;;;;;3.30;3.10;;;9.40;1.00;;;;;;5053138;28;20455;-78
2021/04/16 13:49:55;;;;;;;19.67;8.87;;;9.40;1.00;;;;;;5047306;28;20555;-78
2021/04/16 13:52:23;;;;;;;3.70;3.37;;;9.50;1.00;;;;;;5044971;28;20516;-77
2021/04/16 13:54:50;;;;;;;2.95;2.75;;;9.50;1.00;;;;;;5049551;28;20475;-78
2021/04/16 13:57:19;;;;;;;2.53;2.33;;;9.50;1.00;;;;;;5040967;28;20204;-77
2021/04/16 13:59:50;;;;;;;4.20;3.00;;;9.60;1.00;;;;;;5049574;28;20454;-78
2021/04/16 14:02:22;;;;;;;3.60;3.00;;;9.60;1.00;;;;;;5049941;28;20486;-76
2021/04/16 14:04:50;;;;;;;3.60;3.30;;;9.50;1.00;;;;;;5052630;28;20483;-78
2021/04/16 14:07:18;;;;;;;3.60;3.17;;;9.60;1.00;;;;;;5048322;28;20464;-77
2021/04/16 14:09:45;;;;;;;3.23;3.03;;;9.60;1.00;;;;;;5054480;28;20473;-76
2021/04/16 14:12:15;;;;;;;3.30;2.93;;;9.60;1.00;;;;;;5044494;28;20462;-76
2021/04/16 14:14:46;;;;;;;2.77;2.57;;;9.60;1.00;;;;;;5044886;28;20479;-75
2021/04/16 14:17:15;;;;;;;5.03;3.03;;;9.50;1.00;;;;;;5045172;28;20470;-77
2021/04/16 14:19:46;;;;;;;2.87;2.70;;;9.50;1.00;;;;;;5052702;28;20465;-76
2021/04/16 14:22:18;;;;;;;3.70;3.40;;;9.50;1.00;;;;;;5047821;28;20483;-78
2021/04/16 14:24:45;;;;;;;2.67;2.47;;;9.50;1.00;;;;;;5047659;28;20760;-77
2021/04/16 14:27:13;;;;;;;3.50;2.77;;;9.50;1.00;;;;;;5045208;28;20473;-76
2021/04/16 14:29:40;;;;;;;2.75;2.55;;;9.50;1.00;;;;;;5044783;28;20468;-79
2021/04/16 14:32:10;;;;;;;19.80;9.70;;;9.50;1.00;;;;;;5045017;28;20204;-77
2021/04/16 14:34:38;;;;;;;6.03;3.23;;;9.50;1.00;;;;;;5052694;28;20559;-79
2021/04/16 14:37:05;;;;;;;3.83;3.63;;;9.50;1.00;;;;;;5058143;28;21045;-78
2021/04/16 14:39:32;;;;;;;2.57;2.37;;;9.50;1.00;;;;;;5053972;28;20458;-77
2021/04/16 14:42:00;;;;;;;3.77;3.30;;;9.40;1.00;;;;;;5048516;28;20500;-78
2021/04/16 14:44:29;;;;;;;3.70;3.03;;;9.50;1.00;;;;;;5046487;28;20542;-77
2021/04/16 14:46:57;;;;;;;2.50;2.40;;;9.50;1.00;;;;;;5055999;28;20463;-77
2021/04/16 14:49:30;;;;;;;2.00;1.90;;;9.60;1.00;;;;;;5063306;28;20467;-76
2021/04/16 14:51:59;;;;;;;2.53;2.33;;;9.40;1.00;;;;;;5057725;28;20463;-78
2021/04/16 14:54:28;;;;;;;2.17;1.97;;;9.30;1.00;;;;;;5049476;28;20476;-77
2021/04/16 14:56:56;;;;;;;3.77;2.57;;;9.30;1.00;;;;;;5050618;28;20453;-77
2021/04/16 14:59:28;;;;;;;2.77;2.57;;;9.30;1.00;;;;;;5049901;28;20464;-78
2021/04/16 15:01:56;;;;;;;2.40;2.20;;;9.30;1.00;;;;;;5060189;28;20557;-77
2021/04/16 15:04:24;;;;;;;1.93;1.83;;;9.40;1.00;;;;;;5059717;28;20582;-76
2021/04/16 15:06:55;;;;;;;2.00;1.90;;;9.40;1.00;;;;;;5043771;28;20454;-76
2021/04/16 15:09:24;;;;;;;2.63;2.40;;;9.40;1.00;;;;;;5047385;28;20478;-78
2021/04/16 15:11:54;;;;;;;2.50;2.00;;;9.30;1.00;;;;;;5045933;28;20470;-77
2021/04/16 15:14:26;;;;;;;2.30;2.10;;;9.30;1.00;;;;;;5052154;28;20483;-76
2021/04/16 15:16:54;;;;;;;33.60;14.40;;;9.30;1.00;;;;;;5047008;28;20476;-77
2021/04/16 15:19:29;;;;;;;10.37;4.80;;;9.30;1.00;;;;;;5058670;28;20462;-77
2021/04/16 15:22:00;;;;;;;2.90;2.63;;;9.40;1.00;;;;;;5054687;28;20488;-78
2021/04/16 15:24:28;;;;;;;2.03;1.90;;;9.40;1.00;;;;;;5059885;28;20476;-78
2021/04/16 15:26:56;;;;;;;2.50;2.30;;;9.70;1.00;;;;;;5053491;28;20446;-78
2021/04/16 15:29:29;;;;;;;4.10;2.50;;;9.30;1.00;;;;;;5049205;28;20470;-76
2021/04/16 15:31:56;;;;;;;5.30;3.03;;;9.40;1.00;;;;;;5045273;28;20464;-76
2021/04/16 15:48:13;;;;;;;3.93;2.27;;;9.30;1.00;;;;;;5053783;28;21369;-78
2021/04/16 15:50:43;;;;;;;3.50;2.30;;;9.30;1.00;;;;;;5053549;28;20467;-80
2021/04/16 15:53:16;;;;;;;3.00;1.93;;;9.20;1.00;;;;;;5053593;28;20770;-79
2021/04/16 15:55:44;;;;;;;2.10;1.90;;;9.20;1.00;;;;;;5046723;28;21044;-78